sensor_id;sensor_type;location;lat;lon;timestamp;P1;durP1;ratioP1;P2;durP2;ratioP2
23266;SDS011;11802;53.160;8.214;2023-03-01T00:00:59;36.90;;;21.17;;
23266;SDS011;11802;53.160;8.214;2023-03-01T00:03:26;37.50;;;21.70;;
23266;SDS011;11802;53.160;8.214;2023-03-01T00:05:52;40.63;;;22.00;;
23266;SDS011;11802;53.160;8.214;2023-03-01T00:08:18;37.77;;;21.37;;
23266;SDS011;11802;53.160;8.214;2023-03-01T00:10:44;36.90;;;21.47;;
23266;SDS011;11802;53.160;8.214;2023-03-01T00:13:09;39.43;;;21.27;;
23266;SDS011;11802;53.160;8.214;2023-03-01T00:15:38;38.50;;;21.53;;
23266;SDS011;11802;53.160;8.214;2023-03-01T00:18:04;35.97;;;19.97;;
23266;SDS011;11802;53.160;8.214;2023-03-01T00:20:30;34.33;;;20.17;;
23266;SDS011;11802;53.160;8.214;2023-03-01T00:22:55;35.00;;;21.47;;
23266;SDS011;11802;53.160;8.214;2023-03-01T00:25:21;41.47;;;21.77;;
23266;SDS011;11802;53.160;8.214;2023-03-01T00:27:47;40.37;;;21.57;;
23266;SDS011;11802;53.160;8.214;2023-03-01T00:30:13;35.33;;;21.53;;
23266;SDS011;11802;53.160;8.214;2023-03-01T00:32:39;43.17;;;22.23;;
23266;SDS011;11802;53.160;8.214;2023-03-01T00:35:05;43.43;;;23.73;;
23266;SDS011;11802;53.160;8.214;2023-03-01T00:37:31;38.57;;;20.73;;
23266;SDS011;11802;53.160;8.214;2023-03-01T00:39:56;35.63;;;20.90;;
23266;SDS011;11802;53.160;8.214;2023-03-01T00:42:22;39.53;;;20.50;;
23266;SDS011;11802;53.160;8.214;2023-03-01T00:44:48;39.10;;;22.10;;
23266;SDS011;11802;53.160;8.214;2023-03-01T00:47:13;39.50;;;22.50;;
23266;SDS011;11802;53.160;8.214;2023-03-01T00:49:39;40.67;;;22.67;;
23266;SDS011;11802;53.160;8.214;2023-03-01T00:52:05;44.70;;;21.77;;
23266;SDS011;11802;53.160;8.214;2023-03-01T00:54:30;38.50;;;21.47;;
23266;SDS011;11802;53.160;8.214;2023-03-01T00:56:56;41.10;;;23.63;;
23266;SDS011;11802;53.160;8.214;2023-03-01T00:59:21;40.17;;;22.07;;
23266;SDS011;11802;53.160;8.214;2023-03-01T01:01:47;48.10;;;25.20;;
23266;SDS011;11802;53.160;8.214;2023-03-01T01:04:13;37.93;;;22.80;;
23266;SDS011;11802;53.160;8.214;2023-03-01T01:06:39;47.97;;;23.87;;
23266;SDS011;11802;53.160;8.214;2023-03-01T01:09:08;45.93;;;23.10;;
23266;SDS011;11802;53.160;8.214;2023-03-01T01:11:42;36.80;;;21.63;;
23266;SDS011;11802;53.160;8.214;2023-03-01T01:14:12;42.87;;;23.77;;
23266;SDS011;11802;53.160;8.214;2023-03-01T01:16:38;40.67;;;22.70;;
23266;SDS011;11802;53.160;8.214;2023-03-01T01:19:03;40.80;;;22.03;;
23266;SDS011;11802;53.160;8.214;2023-03-01T01:21:29;43.83;;;23.23;;
23266;SDS011;11802;53.160;8.214;2023-03-01T01:23:55;45.47;;;24.63;;
23266;SDS011;11802;53.160;8.214;2023-03-01T01:26:22;46.43;;;24.47;;
23266;SDS011;11802;53.160;8.214;2023-03-01T01:28:49;42.63;;;23.03;;
23266;SDS011;11802;53.160;8.214;2023-03-01T01:31:16;44.27;;;23.70;;
23266;SDS011;11802;53.160;8.214;2023-03-01T01:33:42;43.67;;;22.87;;
23266;SDS011;11802;53.160;8.214;2023-03-01T01:36:08;40.37;;;23.33;;
23266;SDS011;11802;53.160;8.214;2023-03-01T01:38:34;42.97;;;23.57;;
23266;SDS011;11802;53.160;8.214;2023-03-01T01:41:00;39.30;;;21.43;;
23266;SDS011;11802;53.160;8.214;2023-03-01T01:43:36;43.07;;;23.33;;
23266;SDS011;11802;53.160;8.214;2023-03-01T01:46:13;42.70;;;22.77;;
23266;SDS011;11802;53.160;8.214;2023-03-01T01:48:54;45.27;;;24.30;;
23266;SDS011;11802;53.160;8.214;2023-03-01T01:51:24;39.53;;;21.70;;
23266;SDS011;11802;53.160;8.214;2023-03-01T01:53:53;43.43;;;23.97;;
23266;SDS011;11802;53.160;8.214;2023-03-01T01:56:23;46.87;;;24.43;;
23266;SDS011;11802;53.160;8.214;2023-03-01T01:58:50;38.73;;;22.37;;
23266;SDS011;11802;53.160;8.214;2023-03-01T02:01:16;41.07;;;23.27;;
23266;SDS011;11802;53.160;8.214;2023-03-01T02:03:42;36.40;;;20.37;;
23266;SDS011;11802;53.160;8.214;2023-03-01T02:08:46;46.13;;;24.47;;
23266;SDS011;11802;53.160;8.214;2023-03-01T02:11:13;41.17;;;23.10;;
23266;SDS011;11802;53.160;8.214;2023-03-01T02:13:39;39.87;;;22.67;;
23266;SDS011;11802;53.160;8.214;2023-03-01T02:16:10;45.47;;;23.67;;
23266;SDS011;11802;53.160;8.214;2023-03-01T02:18:38;38.97;;;20.60;;
23266;SDS011;11802;53.160;8.214;2023-03-01T02:23:42;41.20;;;23.40;;
23266;SDS011;11802;53.160;8.214;2023-03-01T02:26:12;43.57;;;22.47;;
23266;SDS011;11802;53.160;8.214;2023-03-01T02:28:59;43.27;;;22.60;;
23266;SDS011;11802;53.160;8.214;2023-03-01T02:31:25;42.30;;;22.60;;
23266;SDS011;11802;53.160;8.214;2023-03-01T02:34:13;40.70;;;22.23;;
23266;SDS011;11802;53.160;8.214;2023-03-01T02:36:48;37.40;;;23.03;;
23266;SDS011;11802;53.160;8.214;2023-03-01T02:39:37;39.90;;;22.47;;
23266;SDS011;11802;53.160;8.214;2023-03-01T02:42:07;40.23;;;22.90;;
23266;SDS011;11802;53.160;8.214;2023-03-01T02:44:37;42.60;;;22.23;;
23266;SDS011;11802;53.160;8.214;2023-03-01T02:47:03;43.77;;;23.60;;
23266;SDS011;11802;53.160;8.214;2023-03-01T02:49:30;41.97;;;23.40;;
23266;SDS011;11802;53.160;8.214;2023-03-01T02:57:32;45.87;;;25.07;;
23266;SDS011;11802;53.160;8.214;2023-03-01T03:00:02;49.83;;;25.87;;
23266;SDS011;11802;53.160;8.214;2023-03-01T03:02:34;51.50;;;25.97;;
23266;SDS011;11802;53.160;8.214;2023-03-01T03:05:08;43.27;;;24.50;;
23266;SDS011;11802;53.160;8.214;2023-03-01T03:07:37;50.27;;;26.27;;
23266;SDS011;11802;53.160;8.214;2023-03-01T03:10:06;54.20;;;27.93;;
23266;SDS011;11802;53.160;8.214;2023-03-01T03:12:34;50.97;;;27.70;;
23266;SDS011;11802;53.160;8.214;2023-03-01T03:14:59;52.37;;;27.23;;
23266;SDS011;11802;53.160;8.214;2023-03-01T03:17:25;52.57;;;28.17;;
23266;SDS011;11802;53.160;8.214;2023-03-01T03:19:50;53.77;;;29.03;;
23266;SDS011;11802;53.160;8.214;2023-03-01T03:22:16;51.13;;;28.30;;
23266;SDS011;11802;53.160;8.214;2023-03-01T03:24:41;52.30;;;28.27;;
23266;SDS011;11802;53.160;8.214;2023-03-01T03:27:07;54.47;;;29.17;;
23266;SDS011;11802;53.160;8.214;2023-03-01T03:29:33;47.80;;;26.93;;
23266;SDS011;11802;53.160;8.214;2023-03-01T03:31:58;50.37;;;28.13;;
23266;SDS011;11802;53.160;8.214;2023-03-01T03:34:24;49.93;;;27.83;;
23266;SDS011;11802;53.160;8.214;2023-03-01T03:36:53;48.63;;;27.80;;
23266;SDS011;11802;53.160;8.214;2023-03-01T03:39:24;50.43;;;27.00;;
23266;SDS011;11802;53.160;8.214;2023-03-01T03:41:51;48.03;;;26.30;;
23266;SDS011;11802;53.160;8.214;2023-03-01T03:44:16;46.77;;;24.20;;
23266;SDS011;11802;53.160;8.214;2023-03-01T03:46:42;48.23;;;24.37;;
23266;SDS011;11802;53.160;8.214;2023-03-01T03:49:07;48.10;;;25.80;;
23266;SDS011;11802;53.160;8.214;2023-03-01T03:51:33;48.13;;;26.50;;
23266;SDS011;11802;53.160;8.214;2023-03-01T03:53:58;47.07;;;24.90;;
23266;SDS011;11802;53.160;8.214;2023-03-01T03:56:24;44.87;;;25.03;;
23266;SDS011;11802;53.160;8.214;2023-03-01T03:58:51;42.47;;;24.57;;
23266;SDS011;11802;53.160;8.214;2023-03-01T04:01:17;45.33;;;25.23;;
23266;SDS011;11802;53.160;8.214;2023-03-01T04:03:42;41.47;;;24.27;;
23266;SDS011;11802;53.160;8.214;2023-03-01T04:06:11;45.50;;;24.93;;
23266;SDS011;11802;53.160;8.214;2023-03-01T04:08:38;39.20;;;22.77;;
23266;SDS011;11802;53.160;8.214;2023-03-01T04:11:04;40.00;;;22.13;;
23266;SDS011;11802;53.160;8.214;2023-03-01T04:13:49;36.93;;;20.63;;
23266;SDS011;11802;53.160;8.214;2023-03-01T04:16:15;45.47;;;24.03;;
23266;SDS011;11802;53.160;8.214;2023-03-01T04:18:41;44.27;;;23.63;;
23266;SDS011;11802;53.160;8.214;2023-03-01T04:21:07;42.20;;;22.87;;
23266;SDS011;11802;53.160;8.214;2023-03-01T04:23:32;40.63;;;23.50;;
23266;SDS011;11802;53.160;8.214;2023-03-01T04:25:59;40.37;;;23.33;;
23266;SDS011;11802;53.160;8.214;2023-03-01T04:28:32;42.17;;;23.17;;
23266;SDS011;11802;53.160;8.214;2023-03-01T04:31:11;42.60;;;23.67;;
23266;SDS011;11802;53.160;8.214;2023-03-01T04:33:45;40.13;;;22.80;;
23266;SDS011;11802;53.160;8.214;2023-03-01T04:36:13;41.20;;;22.73;;
23266;SDS011;11802;53.160;8.214;2023-03-01T04:38:40;47.50;;;25.53;;
23266;SDS011;11802;53.160;8.214;2023-03-01T04:41:06;47.17;;;25.23;;
23266;SDS011;11802;53.160;8.214;2023-03-01T04:43:34;50.03;;;25.33;;
23266;SDS011;11802;53.160;8.214;2023-03-01T04:46:01;47.53;;;26.17;;
23266;SDS011;11802;53.160;8.214;2023-03-01T04:48:29;47.53;;;24.97;;
23266;SDS011;11802;53.160;8.214;2023-03-01T04:50:55;44.33;;;23.70;;
23266;SDS011;11802;53.160;8.214;2023-03-01T04:53:21;39.70;;;21.77;;
23266;SDS011;11802;53.160;8.214;2023-03-01T04:55:46;40.90;;;22.97;;
23266;SDS011;11802;53.160;8.214;2023-03-01T04:58:12;43.17;;;22.90;;
23266;SDS011;11802;53.160;8.214;2023-03-01T05:00:37;42.20;;;23.17;;
23266;SDS011;11802;53.160;8.214;2023-03-01T05:03:03;38.90;;;22.73;;
23266;SDS011;11802;53.160;8.214;2023-03-01T05:05:30;39.00;;;21.67;;
23266;SDS011;11802;53.160;8.214;2023-03-01T05:08:05;39.30;;;21.27;;
23266;SDS011;11802;53.160;8.214;2023-03-01T05:10:32;40.17;;;20.90;;
23266;SDS011;11802;53.160;8.214;2023-03-01T05:13:00;39.17;;;23.00;;
23266;SDS011;11802;53.160;8.214;2023-03-01T05:15:26;41.23;;;24.17;;
23266;SDS011;11802;53.160;8.214;2023-03-01T05:17:53;40.53;;;23.20;;
23266;SDS011;11802;53.160;8.214;2023-03-01T05:20:21;41.50;;;22.20;;
23266;SDS011;11802;53.160;8.214;2023-03-01T05:22:50;40.27;;;22.07;;
23266;SDS011;11802;53.160;8.214;2023-03-01T05:25:16;41.77;;;22.87;;
23266;SDS011;11802;53.160;8.214;2023-03-01T05:27:42;44.27;;;22.60;;
23266;SDS011;11802;53.160;8.214;2023-03-01T05:30:08;36.93;;;21.47;;
23266;SDS011;11802;53.160;8.214;2023-03-01T05:32:42;41.53;;;22.17;;
23266;SDS011;11802;53.160;8.214;2023-03-01T05:35:13;35.53;;;20.10;;
23266;SDS011;11802;53.160;8.214;2023-03-01T05:37:41;44.60;;;21.73;;
23266;SDS011;11802;53.160;8.214;2023-03-01T05:40:09;39.40;;;22.70;;
23266;SDS011;11802;53.160;8.214;2023-03-01T05:42:40;39.37;;;22.50;;
23266;SDS011;11802;53.160;8.214;2023-03-01T05:45:10;38.53;;;22.53;;
23266;SDS011;11802;53.160;8.214;2023-03-01T05:47:37;40.03;;;22.03;;
23266;SDS011;11802;53.160;8.214;2023-03-01T05:50:13;42.10;;;23.67;;
23266;SDS011;11802;53.160;8.214;2023-03-01T05:52:45;40.53;;;23.13;;
23266;SDS011;11802;53.160;8.214;2023-03-01T05:55:13;40.57;;;22.60;;
23266;SDS011;11802;53.160;8.214;2023-03-01T05:57:40;40.20;;;22.23;;
23266;SDS011;11802;53.160;8.214;2023-03-01T06:00:06;39.60;;;22.60;;
23266;SDS011;11802;53.160;8.214;2023-03-01T06:02:32;40.90;;;23.93;;
23266;SDS011;11802;53.160;8.214;2023-03-01T06:04:58;43.87;;;24.40;;
23266;SDS011;11802;53.160;8.214;2023-03-01T06:07:23;39.63;;;23.27;;
23266;SDS011;11802;53.160;8.214;2023-03-01T06:09:49;40.00;;;22.63;;
23266;SDS011;11802;53.160;8.214;2023-03-01T06:12:14;41.53;;;23.17;;
23266;SDS011;11802;53.160;8.214;2023-03-01T06:14:40;45.57;;;22.97;;
23266;SDS011;11802;53.160;8.214;2023-03-01T06:17:05;35.53;;;21.90;;
23266;SDS011;11802;53.160;8.214;2023-03-01T06:19:31;40.33;;;22.43;;
23266;SDS011;11802;53.160;8.214;2023-03-01T06:21:56;39.90;;;22.37;;
23266;SDS011;11802;53.160;8.214;2023-03-01T06:24:22;42.00;;;22.10;;
23266;SDS011;11802;53.160;8.214;2023-03-01T06:26:47;42.97;;;23.20;;
23266;SDS011;11802;53.160;8.214;2023-03-01T06:29:13;38.87;;;22.57;;
23266;SDS011;11802;53.160;8.214;2023-03-01T06:31:39;42.00;;;22.73;;
23266;SDS011;11802;53.160;8.214;2023-03-01T06:34:05;37.93;;;21.83;;
23266;SDS011;11802;53.160;8.214;2023-03-01T06:36:30;42.80;;;22.57;;
23266;SDS011;11802;53.160;8.214;2023-03-01T06:38:56;40.87;;;22.47;;
23266;SDS011;11802;53.160;8.214;2023-03-01T06:41:21;44.73;;;24.30;;
23266;SDS011;11802;53.160;8.214;2023-03-01T06:43:47;38.63;;;22.27;;
23266;SDS011;11802;53.160;8.214;2023-03-01T06:46:13;37.27;;;20.97;;
23266;SDS011;11802;53.160;8.214;2023-03-01T06:48:38;42.50;;;23.60;;
23266;SDS011;11802;53.160;8.214;2023-03-01T06:51:04;40.43;;;22.83;;
23266;SDS011;11802;53.160;8.214;2023-03-01T06:53:29;43.67;;;24.57;;
23266;SDS011;11802;53.160;8.214;2023-03-01T06:55:56;42.57;;;22.87;;
23266;SDS011;11802;53.160;8.214;2023-03-01T06:58:22;44.93;;;24.23;;
23266;SDS011;11802;53.160;8.214;2023-03-01T07:00:47;48.90;;;26.10;;
23266;SDS011;11802;53.160;8.214;2023-03-01T07:03:13;41.93;;;23.93;;
23266;SDS011;11802;53.160;8.214;2023-03-01T07:05:38;38.67;;;22.17;;
23266;SDS011;11802;53.160;8.214;2023-03-01T07:08:04;43.63;;;23.40;;
23266;SDS011;11802;53.160;8.214;2023-03-01T07:10:30;36.10;;;22.47;;
23266;SDS011;11802;53.160;8.214;2023-03-01T07:12:56;33.50;;;20.20;;
23266;SDS011;11802;53.160;8.214;2023-03-01T07:15:23;34.47;;;20.77;;
23266;SDS011;11802;53.160;8.214;2023-03-01T07:17:49;30.07;;;20.20;;
23266;SDS011;11802;53.160;8.214;2023-03-01T07:20:15;32.80;;;19.70;;
23266;SDS011;11802;53.160;8.214;2023-03-01T07:22:49;32.97;;;20.30;;
23266;SDS011;11802;53.160;8.214;2023-03-01T07:25:15;28.53;;;17.93;;
23266;SDS011;11802;53.160;8.214;2023-03-01T07:27:40;28.90;;;18.17;;
23266;SDS011;11802;53.160;8.214;2023-03-01T07:30:06;30.10;;;18.30;;
23266;SDS011;11802;53.160;8.214;2023-03-01T07:32:32;28.93;;;18.40;;
23266;SDS011;11802;53.160;8.214;2023-03-01T07:34:58;26.67;;;16.67;;
23266;SDS011;11802;53.160;8.214;2023-03-01T07:37:23;25.83;;;16.17;;
23266;SDS011;11802;53.160;8.214;2023-03-01T07:39:49;28.13;;;16.90;;
23266;SDS011;11802;53.160;8.214;2023-03-01T07:42:15;28.37;;;17.97;;
23266;SDS011;11802;53.160;8.214;2023-03-01T07:44:40;27.63;;;17.50;;
23266;SDS011;11802;53.160;8.214;2023-03-01T07:47:06;30.57;;;18.50;;
23266;SDS011;11802;53.160;8.214;2023-03-01T07:49:31;29.23;;;17.83;;
23266;SDS011;11802;53.160;8.214;2023-03-01T07:51:57;30.73;;;18.33;;
23266;SDS011;11802;53.160;8.214;2023-03-01T07:54:23;28.17;;;18.10;;
23266;SDS011;11802;53.160;8.214;2023-03-01T07:56:48;26.00;;;17.40;;
23266;SDS011;11802;53.160;8.214;2023-03-01T07:59:14;31.77;;;18.20;;
23266;SDS011;11802;53.160;8.214;2023-03-01T08:01:40;29.67;;;18.13;;
23266;SDS011;11802;53.160;8.214;2023-03-01T08:04:07;27.23;;;17.50;;
23266;SDS011;11802;53.160;8.214;2023-03-01T08:06:34;27.67;;;16.80;;
23266;SDS011;11802;53.160;8.214;2023-03-01T08:09:00;25.57;;;16.87;;
23266;SDS011;11802;53.160;8.214;2023-03-01T08:11:26;28.57;;;17.33;;
23266;SDS011;11802;53.160;8.214;2023-03-01T08:13:53;28.63;;;18.30;;
23266;SDS011;11802;53.160;8.214;2023-03-01T08:16:18;28.57;;;17.53;;
23266;SDS011;11802;53.160;8.214;2023-03-01T08:18:44;28.47;;;17.97;;
23266;SDS011;11802;53.160;8.214;2023-03-01T08:21:11;29.23;;;18.13;;
23266;SDS011;11802;53.160;8.214;2023-03-01T08:23:39;25.10;;;17.33;;
23266;SDS011;11802;53.160;8.214;2023-03-01T08:28:41;27.37;;;17.43;;
23266;SDS011;11802;53.160;8.214;2023-03-01T08:31:14;26.70;;;16.93;;
23266;SDS011;11802;53.160;8.214;2023-03-01T08:33:42;25.70;;;16.03;;
23266;SDS011;11802;53.160;8.214;2023-03-01T08:36:08;27.07;;;14.73;;
23266;SDS011;11802;53.160;8.214;2023-03-01T08:38:36;23.53;;;14.50;;
23266;SDS011;11802;53.160;8.214;2023-03-01T08:41:02;23.13;;;15.67;;
23266;SDS011;11802;53.160;8.214;2023-03-01T08:43:32;21.53;;;14.10;;
23266;SDS011;11802;53.160;8.214;2023-03-01T08:45:58;16.63;;;12.23;;
23266;SDS011;11802;53.160;8.214;2023-03-01T08:48:24;19.23;;;12.60;;
23266;SDS011;11802;53.160;8.214;2023-03-01T08:50:50;20.07;;;12.47;;
23266;SDS011;11802;53.160;8.214;2023-03-01T08:53:16;19.47;;;12.73;;
23266;SDS011;11802;53.160;8.214;2023-03-01T08:55:42;20.97;;;14.53;;
23266;SDS011;11802;53.160;8.214;2023-03-01T08:58:07;18.80;;;12.70;;
23266;SDS011;11802;53.160;8.214;2023-03-01T09:00:33;20.45;;;13.23;;
23266;SDS011;11802;53.160;8.214;2023-03-01T09:02:59;15.82;;;11.05;;
23266;SDS011;11802;53.160;8.214;2023-03-01T09:05:25;19.00;;;11.23;;
23266;SDS011;11802;53.160;8.214;2023-03-01T09:07:50;16.50;;;12.00;;
23266;SDS011;11802;53.160;8.214;2023-03-01T09:10:16;19.90;;;11.43;;
23266;SDS011;11802;53.160;8.214;2023-03-01T09:12:42;17.45;;;10.65;;
23266;SDS011;11802;53.160;8.214;2023-03-01T09:15:08;22.77;;;10.80;;
23266;SDS011;11802;53.160;8.214;2023-03-01T09:17:34;13.38;;;8.35;;
23266;SDS011;11802;53.160;8.214;2023-03-01T09:19:59;12.52;;;8.85;;
23266;SDS011;11802;53.160;8.214;2023-03-01T09:22:25;14.73;;;8.98;;
23266;SDS011;11802;53.160;8.214;2023-03-01T09:24:51;12.75;;;8.23;;
23266;SDS011;11802;53.160;8.214;2023-03-01T09:27:19;13.48;;;8.88;;
23266;SDS011;11802;53.160;8.214;2023-03-01T09:29:50;15.82;;;9.95;;
23266;SDS011;11802;53.160;8.214;2023-03-01T09:32:15;16.02;;;11.52;;
23266;SDS011;11802;53.160;8.214;2023-03-01T09:34:41;16.75;;;11.40;;
23266;SDS011;11802;53.160;8.214;2023-03-01T09:37:26;16.98;;;10.52;;
23266;SDS011;11802;53.160;8.214;2023-03-01T09:39:52;19.63;;;10.90;;
23266;SDS011;11802;53.160;8.214;2023-03-01T09:42:17;16.02;;;10.55;;
23266;SDS011;11802;53.160;8.214;2023-03-01T09:44:48;17.80;;;9.73;;
23266;SDS011;11802;53.160;8.214;2023-03-01T09:47:22;11.70;;;7.93;;
23266;SDS011;11802;53.160;8.214;2023-03-01T09:55:14;16.98;;;9.57;;
23266;SDS011;11802;53.160;8.214;2023-03-01T09:57:45;17.00;;;9.47;;
23266;SDS011;11802;53.160;8.214;2023-03-01T10:00:30;13.37;;;8.13;;
23266;SDS011;11802;53.160;8.214;2023-03-01T10:03:52;12.00;;;7.13;;
23266;SDS011;11802;53.160;8.214;2023-03-01T10:06:06;14.57;;;6.60;;
23266;SDS011;11802;53.160;8.214;2023-03-01T10:08:36;11.20;;;6.90;;
23266;SDS011;11802;53.160;8.214;2023-03-01T10:11:32;9.00;;;6.07;;
23266;SDS011;11802;53.160;8.214;2023-03-01T10:14:03;11.00;;;6.33;;
23266;SDS011;11802;53.160;8.214;2023-03-01T10:16:57;9.80;;;6.13;;
23266;SDS011;11802;53.160;8.214;2023-03-01T10:19:37;8.30;;;5.33;;
23266;SDS011;11802;53.160;8.214;2023-03-01T10:22:16;9.53;;;5.63;;
23266;SDS011;11802;53.160;8.214;2023-03-01T10:24:46;8.33;;;5.37;;
23266;SDS011;11802;53.160;8.214;2023-03-01T10:27:42;8.67;;;5.33;;
23266;SDS011;11802;53.160;8.214;2023-03-01T10:30:07;13.43;;;6.40;;
23266;SDS011;11802;53.160;8.214;2023-03-01T10:32:41;8.07;;;5.20;;
23266;SDS011;11802;53.160;8.214;2023-03-01T10:35:21;8.57;;;5.20;;
23266;SDS011;11802;53.160;8.214;2023-03-01T10:38:05;9.27;;;5.60;;
23266;SDS011;11802;53.160;8.214;2023-03-01T10:40:36;9.53;;;5.53;;
23266;SDS011;11802;53.160;8.214;2023-03-01T10:43:22;10.00;;;5.20;;
23266;SDS011;11802;53.160;8.214;2023-03-01T10:45:49;9.70;;;6.03;;
23266;SDS011;11802;53.160;8.214;2023-03-01T10:50:46;12.17;;;7.00;;
23266;SDS011;11802;53.160;8.214;2023-03-01T10:53:21;10.53;;;7.00;;
23266;SDS011;11802;53.160;8.214;2023-03-01T10:55:58;11.47;;;6.97;;
23266;SDS011;11802;53.160;8.214;2023-03-01T10:58:26;12.23;;;7.20;;
23266;SDS011;11802;53.160;8.214;2023-03-01T11:00:54;12.13;;;7.40;;
23266;SDS011;11802;53.160;8.214;2023-03-01T11:03:30;11.13;;;7.93;;
23266;SDS011;11802;53.160;8.214;2023-03-01T11:05:59;13.33;;;9.10;;
23266;SDS011;11802;53.160;8.214;2023-03-01T11:11:29;12.30;;;8.13;;
23266;SDS011;11802;53.160;8.214;2023-03-01T11:14:00;12.43;;;7.80;;
23266;SDS011;11802;53.160;8.214;2023-03-01T11:16:44;13.27;;;7.87;;
23266;SDS011;11802;53.160;8.214;2023-03-01T11:24:15;13.83;;;9.03;;
23266;SDS011;11802;53.160;8.214;2023-03-01T11:26:43;14.97;;;8.93;;
23266;SDS011;11802;53.160;8.214;2023-03-01T11:29:31;18.73;;;10.27;;
23266;SDS011;11802;53.160;8.214;2023-03-01T11:32:02;14.53;;;9.77;;
23266;SDS011;11802;53.160;8.214;2023-03-01T11:34:39;15.63;;;10.40;;
23266;SDS011;11802;53.160;8.214;2023-03-01T11:40:33;17.67;;;11.23;;
23266;SDS011;11802;53.160;8.214;2023-03-01T11:48:52;20.23;;;11.73;;
23266;SDS011;11802;53.160;8.214;2023-03-01T11:59:59;19.73;;;12.10;;
23266;SDS011;11802;53.160;8.214;2023-03-01T12:22:29;22.60;;;13.70;;
23266;SDS011;11802;53.160;8.214;2023-03-01T12:30:29;27.20;;;13.87;;
23266;SDS011;11802;53.160;8.214;2023-03-01T12:38:56;20.40;;;11.83;;
23266;SDS011;11802;53.160;8.214;2023-03-01T12:44:24;22.77;;;13.57;;
23266;SDS011;11802;53.160;8.214;2023-03-01T12:47:02;18.97;;;11.83;;
23266;SDS011;11802;53.160;8.214;2023-03-01T12:49:48;19.33;;;12.10;;
23266;SDS011;11802;53.160;8.214;2023-03-01T12:54:57;19.33;;;12.10;;
23266;SDS011;11802;53.160;8.214;2023-03-01T12:57:29;20.33;;;12.27;;
23266;SDS011;11802;53.160;8.214;2023-03-01T13:08:06;18.10;;;12.73;;
23266;SDS011;11802;53.160;8.214;2023-03-01T13:10:45;21.90;;;13.37;;
23266;SDS011;11802;53.160;8.214;2023-03-01T13:13:18;20.57;;;13.83;;
23266;SDS011;11802;53.160;8.214;2023-03-01T13:15:48;18.90;;;12.70;;
23266;SDS011;11802;53.160;8.214;2023-03-01T13:30:57;20.10;;;13.23;;
23266;SDS011;11802;53.160;8.214;2023-03-01T13:35:52;20.90;;;14.23;;
23266;SDS011;11802;53.160;8.214;2023-03-01T13:46:47;22.83;;;13.97;;
23266;SDS011;11802;53.160;8.214;2023-03-01T13:49:14;23.87;;;13.50;;
23266;SDS011;11802;53.160;8.214;2023-03-01T13:58:51;20.10;;;13.13;;
23266;SDS011;11802;53.160;8.214;2023-03-01T14:01:33;16.83;;;11.93;;
23266;SDS011;11802;53.160;8.214;2023-03-01T14:04:00;19.70;;;13.13;;
23266;SDS011;11802;53.160;8.214;2023-03-01T14:06:29;19.00;;;13.43;;
23266;SDS011;11802;53.160;8.214;2023-03-01T14:09:05;20.03;;;12.93;;
23266;SDS011;11802;53.160;8.214;2023-03-01T14:20:23;21.80;;;13.73;;
23266;SDS011;11802;53.160;8.214;2023-03-01T14:22:52;20.47;;;12.80;;
23266;SDS011;11802;53.160;8.214;2023-03-01T14:25:24;21.67;;;13.27;;
23266;SDS011;11802;53.160;8.214;2023-03-01T14:27:51;19.93;;;13.30;;
23266;SDS011;11802;53.160;8.214;2023-03-01T14:30:33;20.40;;;13.67;;
23266;SDS011;11802;53.160;8.214;2023-03-01T14:33:04;23.33;;;14.97;;
23266;SDS011;11802;53.160;8.214;2023-03-01T14:35:35;23.80;;;15.47;;
23266;SDS011;11802;53.160;8.214;2023-03-01T14:38:01;24.67;;;14.47;;
23266;SDS011;11802;53.160;8.214;2023-03-01T14:40:30;23.80;;;14.00;;
23266;SDS011;11802;53.160;8.214;2023-03-01T14:42:58;27.50;;;15.47;;
23266;SDS011;11802;53.160;8.214;2023-03-01T14:45:26;24.17;;;15.60;;
23266;SDS011;11802;53.160;8.214;2023-03-01T14:47:54;28.07;;;16.17;;
23266;SDS011;11802;53.160;8.214;2023-03-01T14:50:25;22.80;;;15.67;;
23266;SDS011;11802;53.160;8.214;2023-03-01T14:52:57;23.80;;;15.60;;
23266;SDS011;11802;53.160;8.214;2023-03-01T14:57:59;28.37;;;17.10;;
23266;SDS011;11802;53.160;8.214;2023-03-01T15:00:34;26.43;;;17.30;;
23266;SDS011;11802;53.160;8.214;2023-03-01T15:03:04;25.23;;;16.27;;
23266;SDS011;11802;53.160;8.214;2023-03-01T15:05:38;26.30;;;16.20;;
23266;SDS011;11802;53.160;8.214;2023-03-01T15:08:05;27.43;;;17.53;;
23266;SDS011;11802;53.160;8.214;2023-03-01T15:10:32;25.97;;;17.20;;
23266;SDS011;11802;53.160;8.214;2023-03-01T15:13:20;27.27;;;17.50;;
23266;SDS011;11802;53.160;8.214;2023-03-01T15:15:48;25.77;;;17.33;;
23266;SDS011;11802;53.160;8.214;2023-03-01T15:18:18;22.90;;;16.10;;
23266;SDS011;11802;53.160;8.214;2023-03-01T15:20:50;26.10;;;17.17;;
23266;SDS011;11802;53.160;8.214;2023-03-01T15:23:24;27.67;;;18.30;;
23266;SDS011;11802;53.160;8.214;2023-03-01T15:25:52;28.13;;;17.57;;
23266;SDS011;11802;53.160;8.214;2023-03-01T15:28:24;26.13;;;17.47;;
23266;SDS011;11802;53.160;8.214;2023-03-01T15:33:48;28.73;;;18.47;;
23266;SDS011;11802;53.160;8.214;2023-03-01T15:36:30;28.80;;;17.67;;
23266;SDS011;11802;53.160;8.214;2023-03-01T15:39:52;29.07;;;18.53;;
23266;SDS011;11802;53.160;8.214;2023-03-01T15:42:02;29.17;;;19.33;;
23266;SDS011;11802;53.160;8.214;2023-03-01T15:44:30;26.80;;;18.33;;
23266;SDS011;11802;53.160;8.214;2023-03-01T15:46:57;27.00;;;18.33;;
23266;SDS011;11802;53.160;8.214;2023-03-01T15:52:03;26.80;;;18.40;;
23266;SDS011;11802;53.160;8.214;2023-03-01T15:54:34;26.97;;;17.87;;
23266;SDS011;11802;53.160;8.214;2023-03-01T15:57:00;29.50;;;18.87;;
23266;SDS011;11802;53.160;8.214;2023-03-01T15:59:26;30.27;;;18.93;;
23266;SDS011;11802;53.160;8.214;2023-03-01T16:01:51;29.73;;;20.07;;
23266;SDS011;11802;53.160;8.214;2023-03-01T16:04:18;26.27;;;18.23;;
23266;SDS011;11802;53.160;8.214;2023-03-01T16:06:47;29.03;;;18.60;;
23266;SDS011;11802;53.160;8.214;2023-03-01T16:09:21;29.83;;;18.83;;
23266;SDS011;11802;53.160;8.214;2023-03-01T16:11:48;26.07;;;17.53;;
23266;SDS011;11802;53.160;8.214;2023-03-01T16:14:14;29.30;;;18.57;;
23266;SDS011;11802;53.160;8.214;2023-03-01T16:16:41;29.07;;;19.23;;
23266;SDS011;11802;53.160;8.214;2023-03-01T16:19:07;25.40;;;17.67;;
23266;SDS011;11802;53.160;8.214;2023-03-01T16:21:32;33.27;;;19.73;;
23266;SDS011;11802;53.160;8.214;2023-03-01T16:23:58;28.43;;;19.13;;
23266;SDS011;11802;53.160;8.214;2023-03-01T16:26:23;28.20;;;17.87;;
23266;SDS011;11802;53.160;8.214;2023-03-01T16:28:49;29.40;;;18.27;;
23266;SDS011;11802;53.160;8.214;2023-03-01T16:31:18;32.00;;;18.77;;
23266;SDS011;11802;53.160;8.214;2023-03-01T16:33:44;30.00;;;17.50;;
23266;SDS011;11802;53.160;8.214;2023-03-01T16:36:14;31.37;;;19.17;;
23266;SDS011;11802;53.160;8.214;2023-03-01T16:38:41;28.50;;;19.00;;
23266;SDS011;11802;53.160;8.214;2023-03-01T16:41:14;29.43;;;18.70;;
23266;SDS011;11802;53.160;8.214;2023-03-01T16:43:41;29.23;;;18.93;;
23266;SDS011;11802;53.160;8.214;2023-03-01T16:46:10;33.57;;;20.50;;
23266;SDS011;11802;53.160;8.214;2023-03-01T16:48:37;29.40;;;19.33;;
23266;SDS011;11802;53.160;8.214;2023-03-01T16:51:04;30.67;;;19.63;;
23266;SDS011;11802;53.160;8.214;2023-03-01T16:53:29;33.13;;;21.00;;